createdAt,value
2022-11-02T00:01:52.900Z,29.25
2022-11-02T00:05:17.797Z,30.25
2022-11-02T00:08:41.853Z,30.12
2022-11-02T00:12:05.797Z,29.58
2022-11-02T00:15:29.851Z,29.05
2022-11-02T00:18:48.402Z,30.66
2022-11-02T00:22:06.853Z,31.00
2022-11-02T00:25:32.815Z,29.92
2022-11-02T00:28:56.866Z,30.59
2022-11-02T00:32:21.086Z,29.05
2022-11-02T00:35:44.075Z,28.93
2022-11-02T00:39:07.810Z,28.17
2022-11-02T00:42:31.975Z,29.29
2022-11-02T00:45:57.004Z,29.79
2022-11-02T00:49:21.878Z,29.88
2022-11-02T00:52:45.835Z,30.81
2022-11-02T00:56:10.869Z,29.86
2022-11-02T00:59:35.853Z,29.84
2022-11-02T01:02:58.863Z,30.79
2022-11-02T01:06:27.881Z,29.71
2022-11-02T01:09:51.950Z,29.79
2022-11-02T01:13:16.942Z,29.50
2022-11-02T01:16:40.966Z,29.16
2022-11-02T01:20:05.905Z,29.56
2022-11-02T01:23:29.875Z,29.09
2022-11-02T01:26:53.871Z,29.66
2022-11-02T01:30:19.876Z,31.02
2022-11-02T01:33:42.855Z,29.98
2022-11-02T01:36:59.876Z,30.47
2022-11-02T01:40:23.858Z,29.94
2022-11-02T01:43:51.872Z,29.90
2022-11-02T01:47:21.263Z,30.10
2022-11-02T01:50:46.858Z,30.55
2022-11-02T01:54:11.897Z,30.09
2022-11-02T01:57:37.894Z,29.37
2022-11-02T02:01:00.954Z,29.44
2022-11-02T02:04:26.898Z,29.54
2022-11-02T02:07:53.863Z,30.02
2022-11-02T02:11:17.898Z,29.73
2022-11-02T02:14:41.892Z,29.56
2022-11-02T02:18:12.251Z,29.26
2022-11-02T02:21:45.447Z,29.78
2022-11-02T02:25:06.925Z,29.03
2022-11-02T02:28:41.010Z,29.03
2022-11-02T02:32:12.007Z,28.65
2022-11-02T02:36:13.908Z,29.27
2022-11-02T02:39:44.911Z,29.89
2022-11-02T02:43:12.909Z,28.29
2022-11-02T02:46:51.013Z,28.31
2022-11-02T02:50:39.883Z,28.57
2022-11-02T02:54:13.042Z,28.69
2022-11-02T02:57:37.906Z,29.04
2022-11-02T03:01:02.919Z,29.48
2022-11-02T03:04:27.982Z,29.91
2022-11-02T03:07:51.904Z,28.92
2022-11-02T03:11:27.988Z,27.97
2022-11-02T03:15:20.906Z,29.00
2022-11-02T03:18:55.946Z,28.61
2022-11-02T03:22:25.558Z,28.17
2022-11-02T03:26:00.954Z,29.03
2022-11-02T03:29:28.896Z,28.70
2022-11-02T03:33:28.950Z,28.14
2022-11-02T03:37:02.002Z,27.80
2022-11-02T03:40:58.010Z,28.23
2022-11-02T03:44:41.935Z,28.49
2022-11-02T03:48:08.948Z,29.38
2022-11-02T03:51:35.951Z,28.26
2022-11-02T03:55:20.972Z,27.72
2022-11-02T03:58:43.946Z,27.75
2022-11-02T04:02:09.070Z,28.07
2022-11-02T04:05:32.064Z,28.50
2022-11-02T04:09:03.987Z,27.80
2022-11-02T04:12:47.945Z,27.85
2022-11-02T04:16:12.977Z,27.77
2022-11-02T04:19:37.935Z,28.53
2022-11-02T04:23:27.990Z,27.74
2022-11-02T04:26:52.944Z,27.75
2022-11-02T04:30:18.001Z,27.20
2022-11-02T04:33:44.946Z,27.37
2022-11-02T04:37:08.003Z,27.08
2022-11-02T04:40:31.948Z,27.06
2022-11-02T04:43:55.013Z,27.10
2022-11-02T04:47:21.988Z,27.33
2022-11-02T04:50:45.967Z,26.81
2022-11-02T04:54:10.991Z,26.93
2022-11-02T04:57:35.999Z,26.58
2022-11-02T05:00:54.012Z,26.23
2022-11-02T05:04:17.964Z,26.09
2022-11-02T05:07:42.016Z,26.11
2022-11-02T05:11:10.009Z,25.52
2022-11-02T05:14:33.991Z,25.98
2022-11-02T05:17:59.071Z,25.64
2022-11-02T05:21:26.024Z,25.07
2022-11-02T05:24:43.561Z,25.28
2022-11-02T05:28:02.017Z,25.48
2022-11-02T05:31:25.979Z,25.07
2022-11-02T05:34:50.206Z,24.89
2022-11-02T05:38:14.978Z,24.43
2022-11-02T05:41:39.039Z,24.33
2022-11-02T05:45:03.996Z,24.54
2022-11-02T05:48:27.026Z,24.42
2022-11-02T05:51:51.034Z,24.57
2022-11-02T05:55:14.036Z,24.40
2022-11-02T05:58:38.002Z,24.25
2022-11-02T06:02:02.096Z,24.48
2022-11-02T06:05:26.152Z,24.35
2022-11-02T06:08:53.053Z,23.92
2022-11-02T06:12:17.038Z,24.17
2022-11-02T06:15:40.008Z,23.72
2022-11-02T06:19:03.118Z,23.96
2022-11-02T06:22:27.033Z,23.46
2022-11-02T06:25:54.050Z,23.70
2022-11-02T06:29:18.007Z,23.27
2022-11-02T06:32:44.059Z,23.23
2022-11-02T06:36:09.077Z,23.27
2022-11-02T06:39:33.068Z,23.46
2022-11-02T06:43:15.369Z,23.03
2022-11-02T06:46:35.189Z,23.09
2022-11-02T06:50:00.034Z,22.51
2022-11-02T06:53:23.064Z,22.32
2022-11-02T06:56:48.057Z,21.90
2022-11-02T07:00:15.394Z,21.82
2022-11-02T07:03:42.104Z,21.84
2022-11-02T07:07:06.058Z,21.61
2022-11-02T07:10:30.063Z,21.58
2022-11-02T07:13:53.052Z,21.70
2022-11-02T07:17:18.069Z,21.70
2022-11-02T07:20:41.090Z,21.45
2022-11-02T07:24:05.183Z,21.72
2022-11-02T07:27:29.336Z,21.56
2022-11-02T07:30:54.164Z,21.39
2022-11-02T07:34:18.100Z,20.99
2022-11-02T07:37:42.199Z,21.10
2022-11-02T07:41:06.057Z,21.02
2022-11-02T07:44:30.096Z,20.83
2022-11-02T07:47:58.112Z,20.72
2022-11-02T07:51:22.083Z,20.57
2022-11-02T07:54:47.105Z,20.44
2022-11-02T07:58:18.098Z,20.68
2022-11-02T08:01:43.255Z,20.57
2022-11-02T08:05:07.129Z,20.29
2022-11-02T08:08:36.058Z,20.24
2022-11-02T08:11:59.118Z,20.15
2022-11-02T08:15:24.083Z,20.16
2022-11-02T08:18:47.104Z,20.01
2022-11-02T08:22:11.170Z,19.95
2022-11-02T08:25:34.123Z,19.89
2022-11-02T08:28:52.724Z,19.81
2022-11-02T08:32:10.106Z,19.74
2022-11-02T08:35:34.078Z,19.53
2022-11-02T08:38:57.146Z,19.66
2022-11-02T08:42:21.068Z,19.57
2022-11-02T08:49:31.189Z,19.37
2022-11-02T08:52:55.142Z,19.44
2022-11-02T08:56:18.212Z,19.34
2022-11-02T08:59:41.254Z,19.41
2022-11-02T09:03:25.064Z,19.53
2022-11-02T09:06:50.150Z,19.32
2022-11-02T09:10:13.136Z,19.50
2022-11-02T09:13:37.141Z,19.64
2022-11-02T09:17:00.216Z,19.59
2022-11-02T09:20:24.094Z,19.37
2022-11-02T09:23:48.199Z,19.49
2022-11-02T09:27:13.293Z,19.37
2022-11-02T09:30:30.731Z,19.36
2022-11-02T09:33:48.139Z,19.37
2022-11-02T09:37:12.140Z,19.40
2022-11-02T09:40:38.137Z,19.44
2022-11-02T09:44:07.129Z,19.38
2022-11-02T09:51:19.127Z,19.27
2022-11-02T09:54:45.163Z,19.37
2022-11-02T09:58:14.137Z,19.27
2022-11-02T10:01:56.206Z,19.19
2022-11-02T10:05:30.148Z,19.02
2022-11-02T10:09:23.170Z,18.89
2022-11-02T10:12:50.576Z,18.96
2022-11-02T10:16:24.163Z,18.92
2022-11-02T10:19:55.134Z,18.80
2022-11-02T10:23:23.196Z,18.54
2022-11-02T10:26:51.152Z,18.44
2022-11-02T10:30:24.155Z,18.54
2022-11-02T10:33:47.185Z,18.46
2022-11-02T10:37:39.251Z,18.46
2022-11-02T10:41:32.194Z,18.42
2022-11-02T10:45:18.137Z,18.25
2022-11-02T10:49:08.177Z,18.24
2022-11-02T10:52:32.133Z,18.12
2022-11-02T10:56:31.178Z,18.11
2022-11-02T10:59:56.921Z,18.02
2022-11-02T11:03:28.266Z,17.98
2022-11-02T11:06:56.310Z,17.99
2022-11-02T11:10:21.199Z,17.97
2022-11-02T11:21:19.177Z,17.90
2022-11-02T11:24:47.227Z,17.77
2022-11-02T11:28:13.299Z,17.72
2022-11-02T11:31:37.337Z,17.73
2022-11-02T11:35:10.388Z,17.71
2022-11-02T11:38:36.277Z,17.65
2022-11-02T11:42:01.428Z,17.73
2022-11-02T11:45:37.221Z,17.70
2022-11-02T11:49:07.293Z,17.68
2022-11-02T11:52:40.228Z,17.61
2022-11-02T11:56:08.174Z,17.60
2022-11-02T11:59:42.227Z,17.75
2022-11-02T12:03:19.442Z,17.57
2022-11-02T12:06:49.224Z,17.36
2022-11-02T12:10:28.235Z,17.25
2022-11-02T12:14:28.258Z,17.27
2022-11-02T12:18:07.654Z,17.29
2022-11-02T12:21:49.213Z,17.16
2022-11-02T12:25:38.428Z,17.11
2022-11-02T12:29:43.207Z,17.03
2022-11-02T12:33:30.277Z,17.08
2022-11-02T12:37:38.689Z,17.05
2022-11-02T12:41:08.228Z,17.01
2022-11-02T12:44:36.366Z,17.05
2022-11-02T12:48:18.304Z,17.03
2022-11-02T12:51:48.355Z,16.92
2022-11-02T12:55:17.035Z,16.91
2022-11-02T12:58:48.402Z,16.95
2022-11-02T13:02:23.331Z,16.97
2022-11-02T13:05:58.382Z,16.93
2022-11-02T13:10:00.329Z,16.74
2022-11-02T13:13:35.371Z,16.84
2022-11-02T13:17:14.397Z,16.90
2022-11-02T13:20:41.358Z,16.96
2022-11-02T13:24:12.399Z,17.17
2022-11-02T13:28:05.634Z,17.16
2022-11-02T13:31:43.382Z,17.22
2022-11-02T13:35:08.356Z,17.33
2022-11-02T13:38:51.481Z,17.36
2022-11-02T13:42:32.920Z,17.46
2022-11-02T13:46:11.276Z,17.30
2022-11-02T13:49:52.572Z,17.43
2022-11-02T13:53:37.101Z,17.44
2022-11-02T13:57:05.792Z,17.40
2022-11-02T14:01:04.898Z,17.42
2022-11-02T14:04:30.455Z,17.49
2022-11-02T14:08:07.682Z,17.47
2022-11-02T14:11:32.458Z,17.50
2022-11-02T14:14:59.603Z,17.34
2022-11-02T14:18:54.647Z,17.32
2022-11-02T14:22:31.155Z,17.28
2022-11-02T14:26:16.141Z,17.26
2022-11-02T14:30:00.953Z,17.26
2022-11-02T14:33:39.132Z,17.20
2022-11-02T14:37:47.376Z,17.19
2022-11-02T14:41:35.786Z,17.16
2022-11-02T14:45:24.231Z,16.97
2022-11-02T14:52:49.422Z,16.88
2022-11-02T14:56:19.237Z,16.88
2022-11-02T14:59:56.375Z,16.89
2022-11-02T15:03:41.471Z,16.85
2022-11-02T15:07:13.823Z,16.84
2022-11-02T15:10:38.472Z,16.83
2022-11-02T15:14:26.479Z,16.65
2022-11-02T15:17:58.949Z,16.56
2022-11-02T15:21:35.531Z,16.47
2022-11-02T15:25:02.293Z,16.51
2022-11-02T15:28:35.465Z,16.54
2022-11-02T15:32:11.612Z,16.44
2022-11-02T15:36:03.580Z,16.48
2022-11-02T15:39:41.264Z,16.59
2022-11-02T15:43:38.368Z,16.49
2022-11-02T15:47:17.477Z,16.52
2022-11-02T15:50:44.418Z,16.51
2022-11-02T15:54:27.534Z,16.47
2022-11-02T15:58:11.423Z,16.30
2022-11-02T16:01:37.554Z,16.31
2022-11-02T16:05:02.302Z,16.33
2022-11-02T16:08:52.332Z,16.24
2022-11-02T16:12:34.320Z,16.21
2022-11-02T16:15:58.341Z,16.33
2022-11-02T16:19:34.300Z,16.29
2022-11-02T16:23:13.318Z,16.24
2022-11-02T16:26:38.309Z,16.25
2022-11-02T16:30:03.437Z,16.19
2022-11-02T16:33:19.880Z,16.12
2022-11-02T16:36:40.320Z,16.16
2022-11-02T16:40:03.298Z,16.21
2022-11-02T16:43:28.339Z,16.28
2022-11-02T16:47:04.302Z,16.36
2022-11-02T16:50:39.340Z,16.38
2022-11-02T16:54:03.329Z,16.31
2022-11-02T16:57:34.371Z,16.27
2022-11-02T17:01:16.452Z,16.54
2022-11-02T17:04:40.390Z,16.46
2022-11-02T17:08:18.314Z,16.47
2022-11-02T17:11:41.350Z,16.46
2022-11-02T17:15:05.357Z,16.48
2022-11-02T17:18:32.192Z,16.56
2022-11-02T17:21:59.361Z,16.69
2022-11-02T17:25:37.320Z,16.70
2022-11-02T17:29:09.358Z,16.73
2022-11-02T17:32:32.345Z,16.85
2022-11-02T17:36:04.359Z,16.95
2022-11-02T17:39:34.342Z,17.00
2022-11-02T17:43:10.366Z,17.09
2022-11-02T17:46:35.340Z,17.16
2022-11-02T17:49:59.391Z,17.26
2022-11-02T17:53:27.319Z,17.49
2022-11-02T17:56:53.376Z,17.63
2022-11-02T18:00:17.348Z,17.91
2022-11-02T18:03:43.014Z,17.90
2022-11-02T18:07:07.337Z,17.90
2022-11-02T18:10:30.382Z,18.02
2022-11-02T18:13:55.214Z,18.05
2022-11-02T18:17:32.470Z,18.12
2022-11-02T18:20:59.357Z,18.33
2022-11-02T18:24:22.375Z,18.37
2022-11-02T18:27:46.311Z,18.46
2022-11-02T18:31:09.374Z,18.42
2022-11-02T18:34:33.328Z,18.34
2022-11-02T18:37:56.358Z,18.58
2022-11-02T18:41:42.385Z,18.87
2022-11-02T18:45:06.329Z,18.92
2022-11-02T18:48:30.377Z,18.99
2022-11-02T18:51:55.391Z,18.85
2022-11-02T18:55:20.355Z,18.99
2022-11-02T18:58:44.369Z,19.02
2022-11-02T19:02:07.478Z,19.12
2022-11-02T19:05:49.470Z,19.21
2022-11-02T19:09:31.354Z,19.18
2022-11-02T19:12:55.386Z,19.22
2022-11-02T19:16:19.381Z,19.30
2022-11-02T19:19:43.355Z,19.28
2022-11-02T19:23:10.708Z,19.30
2022-11-02T19:26:36.392Z,19.25
2022-11-02T19:30:00.352Z,19.33
2022-11-02T19:33:25.392Z,19.42
2022-11-02T19:36:49.377Z,19.38
2022-11-02T19:40:13.418Z,19.47
2022-11-02T19:43:37.377Z,19.44
2022-11-02T19:47:01.402Z,19.37
2022-11-02T19:50:26.377Z,19.50
2022-11-02T19:53:51.417Z,19.50
2022-11-02T19:57:15.391Z,19.34
2022-11-02T20:00:39.390Z,19.36
2022-11-02T20:04:04.412Z,19.34
2022-11-02T20:07:28.404Z,19.32
2022-11-02T20:10:52.422Z,19.30
2022-11-02T20:14:17.411Z,19.10
2022-11-02T20:18:05.379Z,19.21
2022-11-02T20:21:33.402Z,19.12
2022-11-02T20:25:00.416Z,19.03
2022-11-02T20:28:23.419Z,19.06
2022-11-02T20:31:50.367Z,18.99
2022-11-02T20:35:15.574Z,18.96
2022-11-02T20:38:40.408Z,18.99
2022-11-02T20:42:05.417Z,18.96
2022-11-02T20:45:32.445Z,18.99
2022-11-02T20:49:08.565Z,19.01
2022-11-02T20:52:46.451Z,19.00
2022-11-02T20:56:10.426Z,19.07
2022-11-02T20:59:34.401Z,19.10
2022-11-02T21:02:58.420Z,19.18
2022-11-02T21:06:21.463Z,19.19
2022-11-02T21:09:45.394Z,19.15
2022-11-02T21:13:47.433Z,19.08
2022-11-02T21:17:11.420Z,19.05
2022-11-02T21:20:36.431Z,19.15
2022-11-02T21:24:00.412Z,19.27
2022-11-02T21:27:24.423Z,19.07
2022-11-02T21:30:48.409Z,19.11
2022-11-02T21:34:12.436Z,19.21
2022-11-02T21:37:36.445Z,19.29
2022-11-02T21:41:00.798Z,19.30
2022-11-02T21:44:19.451Z,19.38
2022-11-02T21:47:44.409Z,19.28
2022-11-02T21:51:25.460Z,19.33
2022-11-02T21:54:49.489Z,19.43
2022-11-02T21:58:13.460Z,19.43
2022-11-02T22:01:56.548Z,19.40
2022-11-02T22:05:48.945Z,19.51
2022-11-02T22:09:13.438Z,19.60
2022-11-02T22:12:54.565Z,19.63
2022-11-02T22:16:28.456Z,19.67
2022-11-02T22:19:52.485Z,19.78
2022-11-02T22:23:16.444Z,20.05
2022-11-02T22:26:42.620Z,19.91
2022-11-02T22:30:07.441Z,20.10
2022-11-02T22:33:32.474Z,20.08
2022-11-02T22:36:58.467Z,20.09
2022-11-02T22:40:22.576Z,20.20
2022-11-02T22:43:46.438Z,20.17
2022-11-02T22:47:10.495Z,20.33
2022-11-02T22:50:34.477Z,20.45
2022-11-02T22:53:58.456Z,20.43
2022-11-02T22:57:22.467Z,20.12
2022-11-02T23:00:46.466Z,20.53
2022-11-02T23:04:09.483Z,20.39
2022-11-02T23:07:33.461Z,20.36
2022-11-02T23:11:14.497Z,20.48
2022-11-02T23:14:37.438Z,20.29
2022-11-02T23:18:03.486Z,20.36
2022-11-02T23:21:20.515Z,20.44
2022-11-02T23:25:02.454Z,20.87
2022-11-02T23:28:44.500Z,20.86
2022-11-02T23:32:26.498Z,20.68
2022-11-02T23:36:09.489Z,20.87
2022-11-02T23:39:50.497Z,20.82
2022-11-02T23:43:15.478Z,20.91
2022-11-02T23:46:39.488Z,20.98
2022-11-02T23:49:56.066Z,20.86
2022-11-02T23:53:33.512Z,21.03
2022-11-02T23:56:59.526Z,20.90
